Time;durP1;ratioP1;P1;durP2;ratioP2;P2;SDS_P1;SDS_P2;PMS_P1;PMS_P2;Temp;Humidity;BMP_temperature;BMP_pressure;BME280_temperature;BME280_humidity;BME280_pressure;Samples;Min_cycle;Max_cycle;Signal;HPM_P1;HPM_P2
2023/07/13 00:02:19;;;;;;;1999.90;999.90;;;19.10;94.40;;;;;;5055023;28;20040;-71
2023/07/13 00:04:44;;;;;;;1999.90;999.90;;;19.20;94.30;;;;;;5055411;28;20107;-71
2023/07/13 00:07:10;;;;;;;1999.90;999.90;;;19.20;94.20;;;;;;5054589;28;20041;-72
2023/07/13 00:09:35;;;;;;;1999.90;999.90;;;19.20;94.20;;;;;;5055089;28;20021;-71
2023/07/13 00:12:02;;;;;;;1999.90;999.90;;;19.10;94.40;;;;;;5054889;28;20103;-71
2023/07/13 00:14:29;;;;;;;1999.90;999.90;;;19.10;94.30;;;;;;5054993;28;20048;-70
2023/07/13 00:16:55;;;;;;;1999.90;999.90;;;19.00;94.50;;;;;;5054648;28;20042;-71
2023/07/13 00:19:20;;;;;;;1999.90;999.90;;;19.00;94.60;;;;;;5054836;28;20034;-71
2023/07/13 00:21:46;;;;;;;1999.90;999.90;;;18.90;94.70;;;;;;5054946;28;20091;-71
2023/07/13 00:24:15;;;;;;;1999.90;999.90;;;18.90;94.80;;;;;;5054900;28;20037;-71
2023/07/13 00:26:45;;;;;;;1999.90;999.90;;;18.80;95.10;;;;;;5054836;28;20037;-70
2023/07/13 00:29:11;;;;;;;1999.90;999.90;;;18.60;95.20;;;;;;5054359;28;20040;-71
2023/07/13 00:31:37;;;;;;;1999.90;999.90;;;18.60;95.20;;;;;;5054430;28;20069;-71
2023/07/13 00:34:03;;;;;;;1999.90;999.90;;;18.60;95.30;;;;;;5054653;28;20120;-71
2023/07/13 00:36:30;;;;;;;1999.90;999.90;;;18.50;95.20;;;;;;5054336;28;20057;-71
2023/07/13 00:38:55;;;;;;;1999.90;999.90;;;18.50;95.30;;;;;;5054454;28;20045;-71
2023/07/13 00:41:21;;;;;;;1999.90;999.90;;;18.50;95.10;;;;;;5053345;28;20025;-71
2023/07/13 00:43:46;;;;;;;1999.90;999.90;;;18.50;95.10;;;;;;5054261;28;20515;-71
2023/07/13 00:46:16;;;;;;;1999.90;999.90;;;18.40;95.30;;;;;;5054856;28;20108;-71
2023/07/13 00:48:43;;;;;;;1999.90;999.90;;;18.20;95.40;;;;;;5054578;28;20033;-71
2023/07/13 00:51:10;;;;;;;1999.90;999.90;;;18.20;95.50;;;;;;5054149;28;20769;-70
2023/07/13 00:53:36;;;;;;;1999.90;999.90;;;18.00;95.30;;;;;;5054692;28;20029;-71
2023/07/13 00:56:03;;;;;;;1999.90;999.90;;;18.00;95.40;;;;;;5054641;28;20080;-71
2023/07/13 00:58:29;;;;;;;1999.90;999.90;;;18.00;95.40;;;;;;5053877;28;20052;-70
2023/07/13 01:00:55;;;;;;;1999.90;999.90;;;17.90;95.40;;;;;;5054093;28;20037;-71
2023/07/13 01:03:21;;;;;;;1999.90;999.90;;;17.80;95.50;;;;;;5053194;28;20037;-71
2023/07/13 01:05:49;;;;;;;1999.90;999.90;;;17.70;95.90;;;;;;5054529;28;20061;-71
2023/07/13 01:08:15;;;;;;;1999.90;999.90;;;17.70;95.60;;;;;;5053682;28;20083;-71
2023/07/13 01:10:50;;;;;;;1999.90;999.90;;;17.70;95.70;;;;;;5054332;28;20036;-71
2023/07/13 01:13:15;;;;;;;1999.90;999.90;;;17.60;95.70;;;;;;5052545;28;20411;-71
2023/07/13 01:15:46;;;;;;;1999.90;999.90;;;17.50;96.10;;;;;;5054260;28;20045;-71
2023/07/13 01:18:33;;;;;;;1999.90;999.90;;;17.50;96.10;;;;;;5053607;28;20042;-71
2023/07/13 01:21:01;;;;;;;1999.90;999.90;;;17.40;96.10;;;;;;5053879;28;20036;-71
2023/07/13 01:23:28;;;;;;;1999.90;999.90;;;17.50;96.10;;;;;;5054066;28;20179;-71
2023/07/13 01:25:55;;;;;;;1999.90;999.90;;;17.40;96.40;;;;;;5052909;28;20060;-71
2023/07/13 01:28:22;;;;;;;1999.90;999.90;;;17.40;96.40;;;;;;5053768;28;20064;-71
2023/07/13 01:30:48;;;;;;;1999.90;999.90;;;17.30;96.50;;;;;;5054110;28;20099;-71
2023/07/13 01:33:16;;;;;;;1999.90;999.90;;;17.40;96.60;;;;;;5052388;28;20042;-71
2023/07/13 01:35:43;;;;;;;1999.90;999.90;;;17.40;96.70;;;;;;5053991;28;20029;-71
2023/07/13 01:38:10;;;;;;;1999.90;999.90;;;17.30;96.80;;;;;;5052866;28;20038;-71
2023/07/13 01:40:37;;;;;;;1999.90;999.90;;;17.20;96.90;;;;;;5053993;28;20029;-71
2023/07/13 01:43:03;;;;;;;1999.90;999.90;;;17.30;96.90;;;;;;5053738;28;20041;-71
2023/07/13 01:45:29;;;;;;;1999.90;999.90;;;17.20;97.00;;;;;;5053605;28;20515;-71
2023/07/13 01:47:54;;;;;;;1999.90;999.90;;;17.10;97.60;;;;;;5053510;28;20052;-71
2023/07/13 01:50:20;;;;;;;1999.90;999.90;;;17.00;97.50;;;;;;5053841;28;20034;-71
2023/07/13 01:52:46;;;;;;;1999.90;999.90;;;16.80;97.70;;;;;;5055973;28;20124;-71
2023/07/13 01:55:11;;;;;;;1999.90;999.90;;;16.70;97.90;;;;;;5057518;28;20088;-71
2023/07/13 01:57:37;;;;;;;1999.90;999.90;;;16.70;97.90;;;;;;5056934;28;20495;-70
2023/07/13 02:00:10;;;;;;;1999.90;999.90;;;16.60;98.10;;;;;;5057229;28;20079;-71
2023/07/13 02:02:36;;;;;;;1999.90;999.90;;;16.50;98.60;;;;;;5056889;28;20048;-70
2023/07/13 02:05:01;;;;;;;1999.90;999.90;;;16.40;99.50;;;;;;5057381;28;20483;-71
2023/07/13 02:07:27;;;;;;;1999.90;999.90;;;16.30;99.90;;;;;;5056950;28;20045;-71
2023/07/13 02:09:53;;;;;;;1999.90;999.90;;;16.20;99.70;;;;;;5057264;28;20494;-71
2023/07/13 02:12:19;;;;;;;1999.90;999.90;;;16.20;99.10;;;;;;5056961;28;20045;-72
2023/07/13 02:14:44;;;;;;;1999.90;999.90;;;16.10;99.10;;;;;;5056929;28;20041;-71
2023/07/13 02:17:10;;;;;;;1999.90;999.90;;;16.10;99.40;;;;;;5056430;28;20045;-71
2023/07/13 02:19:36;;;;;;;1999.90;999.90;;;16.00;99.60;;;;;;5056817;28;20044;-71
2023/07/13 02:22:02;;;;;;;1999.90;999.90;;;16.00;99.40;;;;;;5056444;28;20041;-71
2023/07/13 02:24:27;;;;;;;1999.90;999.90;;;16.00;99.10;;;;;;5057003;28;20033;-71
2023/07/13 02:26:53;;;;;;;1999.90;999.90;;;16.00;99.60;;;;;;5056647;28;20037;-71
2023/07/13 02:29:18;;;;;;;1999.90;999.90;;;15.90;99.90;;;;;;5055489;28;20025;-71
2023/07/13 02:31:44;;;;;;;1999.90;999.90;;;15.90;99.90;;;;;;5056660;28;20037;-71
2023/07/13 02:34:09;;;;;;;1999.90;999.90;;;15.80;99.90;;;;;;5056538;28;20034;-71
2023/07/13 02:36:35;;;;;;;1999.90;999.90;;;15.90;99.90;;;;;;5056371;28;20033;-70
2023/07/13 02:39:02;;;;;;;1999.90;999.90;;;16.00;99.90;;;;;;5070613;22;20045;-75
2023/07/13 02:41:28;;;;;;;1999.90;999.90;;;16.00;99.90;;;;;;5056319;28;20095;-74
2023/07/13 02:43:56;;;;;;;1999.90;999.90;;;15.90;99.90;;;;;;5056335;28;20083;-75
2023/07/13 02:46:24;;;;;;;1999.90;999.90;;;15.90;99.90;;;;;;5056270;28;20052;-75
2023/07/13 02:48:49;;;;;;;1999.90;999.90;;;16.00;99.90;;;;;;5056494;28;20786;-75
2023/07/13 02:51:15;;;;;;;1999.90;999.90;;;16.00;99.90;;;;;;5056195;28;20034;-75
2023/07/13 02:53:40;;;;;;;1999.90;999.90;;;15.90;99.90;;;;;;5056709;28;20031;-75
2023/07/13 02:56:07;;;;;;;1999.90;999.90;;;15.90;99.90;;;;;;5054993;28;20030;-75
2023/07/13 02:58:32;;;;;;;1999.90;999.90;;;15.80;99.90;;;;;;5054833;28;20072;-75
2023/07/13 03:00:58;;;;;;;1999.90;999.90;;;15.70;99.90;;;;;;5056135;28;20117;-75
2023/07/13 03:03:24;;;;;;;1999.90;999.90;;;15.60;99.90;;;;;;5053921;28;20038;-75
2023/07/13 03:05:59;;;;;;;1999.90;999.90;;;15.40;99.90;;;;;;5056361;28;20033;-74
2023/07/13 03:08:25;;;;;;;1999.90;999.90;;;15.40;99.90;;;;;;5056174;28;20037;-75
2023/07/13 03:11:00;;;;;;;1999.90;999.90;;;15.40;99.90;;;;;;5055824;28;20065;-74
2023/07/13 03:13:26;;;;;;;1999.90;999.90;;;15.40;99.90;;;;;;5056162;28;20566;-74
2023/07/13 03:15:51;;;;;;;1999.90;999.90;;;15.30;99.90;;;;;;5056195;28;20037;-75
2023/07/13 03:18:17;;;;;;;1999.90;999.90;;;15.30;99.90;;;;;;5055732;28;20045;-75
2023/07/13 03:20:42;;;;;;;1999.90;999.90;;;15.20;99.90;;;;;;5054438;28;20045;-75
2023/07/13 03:23:08;;;;;;;1999.90;999.90;;;15.10;99.90;;;;;;5055931;28;20561;-74
2023/07/13 03:25:33;;;;;;;1999.90;999.90;;;15.10;99.90;;;;;;5056092;28;20817;-75
2023/07/13 03:27:59;;;;;;;1999.90;999.90;;;15.00;99.90;;;;;;5055961;28;20087;-75
2023/07/13 03:30:24;;;;;;;1999.90;999.90;;;15.00;99.90;;;;;;5055771;28;20044;-75
2023/07/13 03:32:50;;;;;;;1999.90;999.90;;;14.90;99.90;;;;;;5055423;28;20037;-75
2023/07/13 03:35:15;;;;;;;1999.90;999.90;;;14.90;99.90;;;;;;5056010;28;20060;-75
2023/07/13 03:37:42;;;;;;;1999.90;999.90;;;15.00;99.90;;;;;;5055783;28;20128;-74
2023/07/13 03:40:09;;;;;;;1999.90;999.90;;;14.90;99.90;;;;;;5053756;28;20037;-74
2023/07/13 03:42:34;;;;;;;1999.90;999.90;;;14.90;99.90;;;;;;5055574;28;20560;-74
2023/07/13 03:45:00;;;;;;;1999.90;999.90;;;15.00;99.90;;;;;;5055855;28;20060;-75
2023/07/13 03:47:26;;;;;;;1999.90;999.90;;;15.10;99.90;;;;;;5055134;28;20115;-75
2023/07/13 03:49:51;;;;;;;1999.90;999.90;;;15.00;99.90;;;;;;5055170;28;20040;-75
2023/07/13 03:52:17;;;;;;;1999.90;999.90;;;14.90;99.90;;;;;;5055102;28;20038;-75
2023/07/13 03:54:42;;;;;;;1999.90;999.90;;;14.90;99.90;;;;;;5055578;28;20103;-75
2023/07/13 03:57:08;;;;;;;1999.90;999.90;;;14.80;99.90;;;;;;5055417;28;20454;-75
2023/07/13 03:59:34;;;;;;;1999.90;999.90;;;14.80;99.90;;;;;;5055242;28;20060;-75
2023/07/13 04:02:01;;;;;;;1999.90;999.90;;;14.80;99.90;;;;;;5054829;28;20068;-75
2023/07/13 04:04:26;;;;;;;1999.90;999.90;;;14.80;99.90;;;;;;5055353;28;20033;-75
2023/07/13 04:06:53;;;;;;;1999.90;999.90;;;14.80;99.90;;;;;;5053754;28;20040;-75
2023/07/13 04:09:18;;;;;;;1999.90;999.90;;;14.90;99.90;;;;;;5055119;28;20040;-75
2023/07/13 04:11:44;;;;;;;1999.90;999.90;;;15.00;99.90;;;;;;5055240;28;20033;-75
2023/07/13 04:14:10;;;;;;;1999.90;999.90;;;15.00;99.90;;;;;;5055079;28;20029;-75
2023/07/13 04:16:35;;;;;;;1999.90;999.90;;;14.90;99.90;;;;;;5054889;28;20160;-75
2023/07/13 04:19:01;;;;;;;1999.90;999.90;;;14.90;99.90;;;;;;5055053;28;20117;-75
2023/07/13 04:21:28;;;;;;;1999.90;999.90;;;14.90;99.90;;;;;;5054833;28;20033;-75
2023/07/13 04:23:54;;;;;;;1999.90;999.90;;;14.90;99.90;;;;;;5055140;28;20801;-75
2023/07/13 04:26:23;;;;;;;1999.90;999.90;;;15.00;99.90;;;;;;5055126;28;20029;-75
2023/07/13 04:28:49;;;;;;;1999.90;999.90;;;15.10;99.90;;;;;;5054697;28;20038;-74
2023/07/13 04:31:15;;;;;;;1999.90;999.90;;;15.20;99.90;;;;;;5054737;28;20104;-75
2023/07/13 04:33:41;;;;;;;1999.90;999.90;;;15.30;99.90;;;;;;5054946;28;20037;-75
2023/07/13 04:36:09;;;;;;;1999.90;999.90;;;15.40;99.90;;;;;;5055095;28;20033;-75
2023/07/13 04:38:35;;;;;;;1999.90;999.90;;;15.50;99.90;;;;;;5054425;28;20465;-75
2023/07/13 04:41:03;;;;;;;1999.90;999.90;;;15.60;99.90;;;;;;5053126;28;20030;-75
2023/07/13 04:43:30;;;;;;;1999.90;999.90;;;15.60;99.90;;;;;;5054759;28;20032;-75
2023/07/13 04:45:56;;;;;;;1999.90;999.90;;;15.70;99.90;;;;;;5055048;28;20117;-75
2023/07/13 04:48:22;;;;;;;1999.90;999.90;;;15.90;99.90;;;;;;5054263;28;20045;-75
2023/07/13 04:50:57;;;;;;;1999.90;999.90;;;16.00;99.90;;;;;;5054695;28;20141;-76
2023/07/13 04:53:24;;;;;;;1999.90;999.90;;;16.20;99.90;;;;;;5054847;28;20113;-75
2023/07/13 04:55:50;;;;;;;1999.90;999.90;;;16.30;99.90;;;;;;5035000;28;20064;-75
2023/07/13 04:58:15;;;;;;;1999.90;999.90;;;16.50;99.90;;;;;;5033591;28;20565;-74
2023/07/13 05:00:41;;;;;;;1999.90;999.90;;;16.60;99.90;;;;;;5032885;28;20037;-75
2023/07/13 05:03:06;;;;;;;1999.90;999.90;;;16.60;99.90;;;;;;5034538;28;20034;-75
2023/07/13 05:05:32;;;;;;;1999.90;999.90;;;16.60;99.90;;;;;;5036705;28;20029;-75
2023/07/13 05:07:58;;;;;;;1999.90;999.90;;;16.50;99.90;;;;;;5052902;28;20037;-76
2023/07/13 05:10:23;;;;;;;1999.90;999.90;;;16.40;99.90;;;;;;5054123;28;20061;-74
2023/07/13 05:12:49;;;;;;;1999.90;999.90;;;16.40;99.90;;;;;;5054247;28;20036;-75
2023/07/13 05:15:15;;;;;;;1999.90;999.90;;;16.40;99.90;;;;;;5052815;28;20028;-75
2023/07/13 05:17:41;;;;;;;1999.90;999.90;;;16.50;99.90;;;;;;5071760;28;20510;-74
2023/07/13 05:20:08;;;;;;;1999.90;999.90;;;16.50;99.90;;;;;;5069809;28;20037;-74
2023/07/13 05:22:35;;;;;;;1999.90;999.90;;;16.60;99.90;;;;;;5055102;28;20435;-75
2023/07/13 05:25:01;;;;;;;1999.90;999.90;;;16.70;99.90;;;;;;5052896;28;20103;-75
2023/07/13 05:27:27;;;;;;;1999.90;999.90;;;16.70;99.90;;;;;;5055128;28;20072;-75
2023/07/13 05:29:52;;;;;;;1999.90;999.90;;;16.80;99.90;;;;;;5057788;28;20056;-75
2023/07/13 05:32:18;;;;;;;1999.90;999.90;;;16.90;99.90;;;;;;5057782;28;20030;-74
2023/07/13 05:34:44;;;;;;;1999.90;999.90;;;16.90;99.90;;;;;;5057874;28;20037;-74
2023/07/13 05:37:10;;;;;;;1999.90;999.90;;;17.00;99.90;;;;;;5057685;28;20493;-75
2023/07/13 05:39:36;;;;;;;1999.90;999.90;;;17.10;99.90;;;;;;5055884;28;20037;-78
2023/07/13 05:42:02;;;;;;;1999.90;999.90;;;17.30;99.90;;;;;;5057420;28;20064;-76
2023/07/13 05:44:28;;;;;;;1999.90;999.90;;;17.40;99.90;;;;;;5057809;28;20525;-75
2023/07/13 05:46:55;;;;;;;1999.90;999.90;;;17.50;99.90;;;;;;5058043;28;20076;-76
2023/07/13 05:49:21;;;;;;;1999.90;999.90;;;17.60;99.90;;;;;;5056143;28;20025;-78
2023/07/13 05:51:47;;;;;;;1999.90;999.90;;;17.80;99.90;;;;;;5057262;28;20427;-76
2023/07/13 05:54:12;;;;;;;1999.90;999.90;;;17.90;99.90;;;;;;5055950;28;20033;-77
2023/07/13 05:56:38;;;;;;;1999.90;999.90;;;18.20;99.90;;;;;;5057706;28;20075;-75
2023/07/13 05:59:03;;;;;;;1999.90;999.90;;;18.30;99.90;;;;;;5057281;28;20037;-78
2023/07/13 06:01:30;;;;;;;1999.90;999.90;;;18.40;99.90;;;;;;5055695;28;20029;-77
2023/07/13 06:03:56;;;;;;;1999.90;999.90;;;18.70;99.90;;;;;;5057669;28;20033;-77
2023/07/13 06:06:22;;;;;;;1999.90;999.90;;;18.90;99.90;;;;;;5055912;28;20087;-76
2023/07/13 06:08:47;;;;;;;1999.90;999.90;;;19.00;99.90;;;;;;5057322;28;20033;-73
2023/07/13 06:11:19;;;;;;;1999.90;999.90;;;19.10;99.90;;;;;;5057071;28;20545;-76
2023/07/13 06:13:45;;;;;;;1999.90;999.90;;;19.20;99.90;;;;;;5056850;28;20104;-78
2023/07/13 06:16:11;;;;;;;1999.90;999.90;;;19.20;99.70;;;;;;5055431;28;20117;-75
2023/07/13 06:18:37;;;;;;;1999.90;999.90;;;19.20;99.90;;;;;;5056793;28;20033;-75
2023/07/13 06:21:13;;;;;;;1999.90;999.90;;;19.30;99.90;;;;;;5056794;28;20052;-75
2023/07/13 06:23:39;;;;;;;1999.90;999.90;;;19.30;99.60;;;;;;5055501;28;20064;-75
2023/07/13 06:26:05;;;;;;;1999.90;999.90;;;19.30;99.60;;;;;;5057157;28;20479;-75
2023/07/13 06:28:32;;;;;;;1999.90;999.90;;;19.30;99.10;;;;;;5056921;28;20470;-76
2023/07/13 06:30:59;;;;;;;1999.90;999.90;;;19.30;98.90;;;;;;5056553;28;20021;-75
2023/07/13 06:33:25;;;;;;;1999.90;999.90;;;19.10;99.30;;;;;;5056729;28;20547;-76
2023/07/13 06:35:51;;;;;;;1999.90;999.90;;;19.00;99.30;;;;;;5056888;28;20455;-75
2023/07/13 06:38:16;;;;;;;1999.90;999.90;;;19.10;99.80;;;;;;5056723;28;20046;-75
2023/07/13 06:40:42;;;;;;;1999.90;999.90;;;19.00;99.60;;;;;;5056256;28;20984;-75
2023/07/13 06:43:07;;;;;;;1999.90;999.90;;;19.00;99.50;;;;;;5056560;28;20059;-75
2023/07/13 06:45:41;;;;;;;1999.90;999.90;;;18.90;99.20;;;;;;5056811;28;20033;-75
2023/07/13 06:48:07;;;;;;;1999.90;999.90;;;19.00;98.30;;;;;;5056829;28;20058;-75
2023/07/13 06:50:33;;;;;;;1999.90;999.90;;;19.10;98.60;;;;;;5056430;28;20095;-76
2023/07/13 06:52:59;;;;;;;1999.90;999.90;;;19.30;98.50;;;;;;5056157;28;20045;-76
2023/07/13 06:55:25;;;;;;;1999.90;999.90;;;19.50;98.50;;;;;;5055137;28;20033;-76
2023/07/13 06:57:51;;;;;;;1999.90;999.90;;;19.70;97.10;;;;;;5056450;28;20120;-76
2023/07/13 07:00:17;;;;;;;1999.90;999.90;;;19.70;96.30;;;;;;5056373;28;20034;-75
2023/07/13 07:02:42;;;;;;;1999.90;999.90;;;19.80;96.80;;;;;;5055958;28;20041;-75
2023/07/13 07:05:08;;;;;;;1999.90;999.90;;;20.00;95.00;;;;;;5056342;28;20049;-75
2023/07/13 07:07:33;;;;;;;1999.90;999.90;;;20.20;93.80;;;;;;5056216;28;20041;-78
2023/07/13 07:09:59;;;;;;;1999.90;999.90;;;20.40;93.90;;;;;;5054618;28;20037;-77
2023/07/13 07:12:24;;;;;;;1999.90;999.90;;;20.50;93.60;;;;;;5056236;28;20061;-77
2023/07/13 07:14:50;;;;;;;1999.90;999.90;;;20.30;93.60;;;;;;5054800;28;20039;-78
2023/07/13 07:17:15;;;;;;;1999.90;999.90;;;20.30;93.60;;;;;;5054685;28;20045;-77
2023/07/13 07:19:41;;;;;;;1999.90;999.90;;;20.40;93.60;;;;;;5056210;28;20030;-77
2023/07/13 07:22:07;;;;;;;1999.90;999.90;;;20.70;93.20;;;;;;5056112;28;20499;-77
2023/07/13 07:24:33;;;;;;;1999.90;999.90;;;20.80;93.10;;;;;;5054480;28;20069;-77
2023/07/13 07:26:58;;;;;;;1999.90;999.90;;;20.80;92.60;;;;;;5056159;28;20071;-78
2023/07/13 07:29:26;;;;;;;1999.90;999.90;;;20.80;92.30;;;;;;5055932;28;20050;-77
2023/07/13 07:31:52;;;;;;;1999.90;999.90;;;21.00;92.10;;;;;;5071183;28;20036;-77
2023/07/13 07:34:17;;;;;;;1999.90;999.90;;;21.40;91.50;;;;;;5058584;28;20056;-76
2023/07/13 07:36:43;;;;;;;1999.90;999.90;;;21.60;90.40;;;;;;5059325;28;20980;-76
2023/07/13 07:39:11;;;;;;;1999.90;999.90;;;21.90;90.10;;;;;;5067589;28;20073;-78
2023/07/13 07:41:38;;;;;;;1999.90;999.90;;;21.80;90.00;;;;;;5055533;28;20084;-77
2023/07/13 07:44:04;;;;;;;1999.90;999.90;;;21.70;90.20;;;;;;5056187;28;20041;-77
2023/07/13 07:46:29;;;;;;;1999.90;999.90;;;21.70;89.10;;;;;;5070369;28;20029;-77
2023/07/13 07:48:56;;;;;;;1999.90;999.90;;;22.00;88.20;;;;;;5054400;28;20030;-78
2023/07/13 07:51:22;;;;;;;1999.90;999.90;;;22.20;87.60;;;;;;5054725;28;20064;-75
2023/07/13 07:53:47;;;;;;;1999.90;999.90;;;22.50;87.50;;;;;;5055826;28;20041;-78
2023/07/13 07:56:16;;;;;;;1999.90;999.90;;;22.90;87.50;;;;;;5054795;28;20133;-75
2023/07/13 07:58:42;;;;;;;1999.90;999.90;;;23.10;85.80;;;;;;5055770;28;20092;-76
2023/07/13 08:01:11;;;;;;;1999.90;999.90;;;23.20;85.70;;;;;;5048427;28;20030;-75
2023/07/13 08:03:36;;;;;;;1999.90;999.90;;;23.40;85.20;;;;;;5066455;28;20037;-75
2023/07/13 08:06:02;;;;;;;1999.90;999.90;;;23.60;80.80;;;;;;5062381;28;20038;-75
2023/07/13 08:08:28;;;;;;;1999.90;999.90;;;23.60;81.30;;;;;;5054155;28;20042;-75
2023/07/13 08:10:53;;;;;;;1999.90;999.90;;;23.70;80.90;;;;;;5045134;28;20034;-75
2023/07/13 08:13:19;;;;;;;1999.90;999.90;;;23.70;77.40;;;;;;5055208;28;20538;-75
2023/07/13 08:15:45;;;;;;;1999.90;999.90;;;23.80;76.10;;;;;;5038416;28;20085;-76
2023/07/13 08:18:11;;;;;;;1999.90;999.90;;;23.80;76.10;;;;;;5034339;28;20034;-76
2023/07/13 08:20:38;;;;;;;1999.90;999.90;;;23.80;76.30;;;;;;5035116;28;20030;-75
2023/07/13 08:23:04;;;;;;;1999.90;999.90;;;23.90;76.70;;;;;;5035114;28;20034;-80
2023/07/13 08:25:30;;;;;;;1999.90;999.90;;;23.70;77.30;;;;;;5051734;28;20026;-74
2023/07/13 08:27:55;;;;;;;1999.90;999.90;;;23.90;76.10;;;;;;5054849;28;20118;-74
2023/07/13 08:30:21;;;;;;;1999.90;999.90;;;24.20;77.70;;;;;;5054466;28;20083;-76
2023/07/13 08:32:46;;;;;;;1999.90;999.90;;;24.50;76.10;;;;;;5053333;28;20041;-75
2023/07/13 08:35:13;;;;;;;1999.90;999.90;;;24.50;74.90;;;;;;5054912;28;20099;-75
2023/07/13 08:37:39;;;;;;;1999.90;999.90;;;24.60;75.20;;;;;;5046570;28;20065;-75
2023/07/13 08:40:05;;;;;;;1999.90;999.90;;;24.70;73.40;;;;;;5056452;22;20154;-74
2023/07/13 08:42:44;;;;;;;1999.90;999.90;;;24.60;71.70;;;;;;5033725;28;20150;-71
2023/07/13 08:45:22;;;;;;;1999.90;999.90;;;24.70;72.70;;;;;;5028245;28;20037;-73
2023/07/13 08:48:23;;;;;;;1999.90;999.90;;;24.90;73.30;;;;;;5030016;28;20038;-77
2023/07/13 08:51:09;;;;;;;1999.90;999.90;;;25.10;71.90;;;;;;5006387;28;20042;-76
2023/07/13 08:53:41;;;;;;;1999.90;999.90;;;25.40;70.40;;;;;;5011090;28;20094;-72
2023/07/13 08:56:16;;;;;;;1999.90;999.90;;;25.30;70.10;;;;;;5019011;28;20524;-72
2023/07/13 08:58:43;;;;;;;1999.90;999.90;;;25.20;69.70;;;;;;5013200;28;20049;-72
2023/07/13 09:01:29;;;;;;;1999.90;999.90;;;25.30;69.20;;;;;;5013177;28;20041;-72
2023/07/13 09:04:15;;;;;;;1999.90;999.90;;;25.20;68.60;;;;;;5014938;28;20122;-72
2023/07/13 09:07:06;;;;;;;1999.90;999.90;;;25.80;67.50;;;;;;5009551;28;20515;-73
2023/07/13 09:09:43;;;;;;;1999.90;999.90;;;25.80;68.70;;;;;;5013470;28;20069;-72
2023/07/13 09:12:15;;;;;;;1999.90;999.90;;;25.70;68.10;;;;;;5012054;28;20066;-72
2023/07/13 09:14:48;;;;;;;1999.90;999.90;;;25.50;69.30;;;;;;5012557;28;20034;-72
2023/07/13 09:17:20;;;;;;;1999.90;999.90;;;25.70;69.50;;;;;;5013012;28;20500;-73
2023/07/13 09:19:53;;;;;;;1999.90;999.90;;;25.90;68.70;;;;;;5014357;28;20540;-77
2023/07/13 09:22:22;;;;;;;1999.90;999.90;;;26.40;67.90;;;;;;5009059;28;20809;-73
2023/07/13 09:24:54;;;;;;;1999.90;999.90;;;26.60;66.90;;;;;;5010248;28;20070;-73
2023/07/13 09:27:28;;;;;;;1999.90;999.90;;;26.60;67.40;;;;;;5028939;28;20034;-73
2023/07/13 09:30:11;;;;;;;1999.90;999.90;;;26.70;65.30;;;;;;5013512;28;20437;-73
2023/07/13 09:32:39;;;;;;;1999.90;999.90;;;26.90;65.00;;;;;;5013646;28;20034;-73
2023/07/13 09:35:12;;;;;;;1999.90;999.90;;;26.70;64.30;;;;;;5013872;28;20553;-73
2023/07/13 09:37:38;;;;;;;1999.90;999.90;;;26.70;63.80;;;;;;5014423;28;20827;-73
2023/07/13 09:40:05;;;;;;;1999.90;999.90;;;26.80;64.60;;;;;;5012150;28;20035;-73
2023/07/13 09:42:32;;;;;;;1999.90;999.90;;;26.90;62.90;;;;;;5013900;28;20041;-73
2023/07/13 09:45:02;;;;;;;1999.90;999.90;;;27.00;61.60;;;;;;5014261;28;20894;-73
2023/07/13 09:47:30;;;;;;;1999.90;999.90;;;27.20;61.20;;;;;;5028503;28;20046;-73
2023/07/13 09:50:01;;;;;;;1999.90;999.90;;;27.30;62.40;;;;;;5013933;28;20120;-73
2023/07/13 09:52:39;;;;;;;1999.90;999.90;;;27.60;61.50;;;;;;5013659;28;20096;-73
2023/07/13 09:55:22;;;;;;;1999.90;999.90;;;27.60;61.70;;;;;;5014433;28;20026;-73
2023/07/13 09:57:48;;;;;;;1999.90;999.90;;;27.60;59.80;;;;;;5012271;28;20069;-73
2023/07/13 10:00:22;;;;;;;1999.90;999.90;;;27.50;59.60;;;;;;5013953;28;20487;-73
2023/07/13 10:02:58;;;;;;;1999.90;999.90;;;27.10;60.10;;;;;;5013442;28;20403;-73
2023/07/13 10:05:25;;;;;;;1999.90;999.90;;;26.80;60.40;;;;;;5014069;28;20048;-73
2023/07/13 10:07:51;;;;;;;1999.90;999.90;;;26.70;61.70;;;;;;5013713;28;20093;-73
2023/07/13 10:10:22;;;;;;;1999.90;999.90;;;27.00;60.20;;;;;;5013980;28;20039;-72
2023/07/13 10:12:49;;;;;;;1999.90;999.90;;;27.20;59.70;;;;;;5014805;28;20030;-72
2023/07/13 10:15:18;;;;;;;1999.90;999.90;;;27.40;58.90;;;;;;5016785;28;20030;-72
2023/07/13 10:17:44;;;;;;;1999.90;999.90;;;27.40;58.30;;;;;;5016296;28;20530;-72
2023/07/13 10:20:12;;;;;;;1999.90;999.90;;;27.20;59.10;;;;;;5016729;28;20042;-72
2023/07/13 10:22:52;;;;;;;1999.90;999.90;;;27.20;59.80;;;;;;5012930;28;20123;-72
2023/07/13 10:25:22;;;;;;;1999.90;999.90;;;27.00;59.40;;;;;;5008921;28;20586;-73
2023/07/13 10:27:50;;;;;;;1999.90;999.90;;;27.10;61.50;;;;;;5008843;28;20030;-73
2023/07/13 10:30:19;;;;;;;1999.90;999.90;;;27.30;62.00;;;;;;5016996;28;20108;-72
2023/07/13 10:32:46;;;;;;;1999.90;999.90;;;27.20;59.30;;;;;;5010059;28;20038;-72
2023/07/13 10:35:15;;;;;;;1999.90;999.90;;;27.00;59.10;;;;;;5009908;28;20041;-72
2023/07/13 10:38:09;;;;;;;1999.90;999.90;;;27.30;58.40;;;;;;5016734;28;20043;-72
2023/07/13 10:40:38;;;;;;;1999.90;999.90;;;27.10;57.70;;;;;;5015830;28;20033;-72
2023/07/13 10:43:17;;;;;;;1999.90;999.90;;;27.10;59.40;;;;;;5016204;28;20101;-72
2023/07/13 10:45:46;;;;;;;1999.90;999.90;;;27.60;58.60;;;;;;5031871;28;20034;-73
2023/07/13 10:48:14;;;;;;;1999.90;999.90;;;27.80;57.30;;;;;;5016456;28;20092;-72
2023/07/13 10:50:44;;;;;;;1999.90;999.90;;;28.10;57.80;;;;;;5016942;28;20092;-74
2023/07/13 10:53:36;;;;;;;1999.90;999.90;;;28.20;56.50;;;;;;5016160;28;20433;-73
2023/07/13 10:56:11;;;;;;;1999.90;999.90;;;28.50;56.00;;;;;;5005707;28;20054;-73
2023/07/13 10:58:39;;;;;;;1999.90;999.90;;;29.00;56.10;;;;;;4997154;28;20041;-72
2023/07/13 11:01:13;;;;;;;1999.90;999.90;;;28.80;54.40;;;;;;5004143;28;20031;-76
2023/07/13 11:03:49;;;;;;;1999.90;999.90;;;27.90;58.00;;;;;;5017488;28;20118;-75
2023/07/13 11:06:37;;;;;;;1999.90;999.90;;;27.80;59.20;;;;;;5015249;28;20154;-72
2023/07/13 11:09:28;;;;;;;1999.90;999.90;;;28.30;57.60;;;;;;5015878;28;20519;-71
2023/07/13 11:11:56;;;;;;;1999.90;999.90;;;28.70;57.30;;;;;;5016243;28;20086;-71
2023/07/13 11:14:36;;;;;;;1999.90;999.90;;;28.80;55.90;;;;;;5016197;28;20034;-72
2023/07/13 11:17:27;;;;;;;1999.90;999.90;;;29.40;54.80;;;;;;5016647;28;20042;-71
2023/07/13 11:19:53;;;;;;;1999.90;999.90;;;29.80;54.10;;;;;;4996344;28;20058;-72
2023/07/13 11:22:41;;;;;;;1999.90;999.90;;;30.10;54.10;;;;;;4996239;28;20039;-72
2023/07/13 11:25:28;;;;;;;1999.90;999.90;;;29.00;55.30;;;;;;4995902;28;20089;-72
2023/07/13 11:28:12;;;;;;;1999.90;999.90;;;28.20;57.60;;;;;;5003609;28;20034;-72
2023/07/13 11:30:39;;;;;;;1999.90;999.90;;;28.30;56.00;;;;;;5016047;28;20030;-72
2023/07/13 11:33:12;;;;;;;1999.90;999.90;;;28.00;57.40;;;;;;5015731;28;20030;-72
2023/07/13 11:35:48;;;;;;;1999.90;999.90;;;28.40;55.40;;;;;;5016234;28;20094;-71
2023/07/13 11:38:19;;;;;;;;;;;27.90;56.40;;;;;;5016262;28;20046;-75
2023/07/13 11:40:48;;;;;;;1999.90;999.90;;;27.10;58.50;;;;;;5004272;28;19918;-71
2023/07/13 11:43:15;;;;;;;1999.90;999.90;;;27.00;60.10;;;;;;5012743;28;20420;-73
2023/07/13 11:45:41;;;;;;;1999.90;999.90;;;27.80;59.70;;;;;;5007612;28;20038;-75
2023/07/13 11:48:22;;;;;;;1999.90;999.90;;;28.50;56.70;;;;;;5015084;28;20524;-73
2023/07/13 11:51:03;;;;;;;1999.90;999.90;;;28.60;56.60;;;;;;5012346;28;20124;-72
2023/07/13 11:53:32;;;;;;;1999.90;999.90;;;28.60;53.80;;;;;;5016041;28;20033;-72
2023/07/13 11:55:59;;;;;;;1999.90;999.90;;;28.70;55.10;;;;;;5014783;28;20046;-73
2023/07/13 11:58:28;;;;;;;1999.90;999.90;;;29.00;53.60;;;;;;5005678;28;20042;-72
2023/07/13 12:00:55;;;;;;;1999.90;999.90;;;29.00;53.70;;;;;;5014147;28;20064;-72
2023/07/13 12:03:24;;;;;;;1999.90;999.90;;;29.10;53.60;;;;;;5015897;28;20034;-72
2023/07/13 12:05:59;;;;;;;1999.90;999.90;;;29.30;54.00;;;;;;5014867;28;20863;-72